createdAt,value
2023-03-08T00:01:17.596Z,97313.20
2023-03-08T00:03:47.431Z,97313.27
2023-03-08T00:06:15.295Z,97314.95
2023-03-08T00:08:42.342Z,97312.66
2023-03-08T00:11:11.724Z,97314.00
2023-03-08T00:13:38.546Z,97312.64
2023-03-08T00:16:07.858Z,97307.48
2023-03-08T00:18:35.298Z,97300.58
2023-03-08T00:21:12.818Z,97305.85
2023-03-08T00:23:40.271Z,97304.39
2023-03-08T00:26:07.101Z,97304.84
2023-03-08T00:28:33.701Z,97304.92
2023-03-08T00:31:08.943Z,97302.95
2023-03-08T00:33:36.459Z,97303.73
2023-03-08T00:36:08.187Z,97295.79
2023-03-08T00:38:36.333Z,97293.63
2023-03-08T00:41:03.650Z,97287.81
2023-03-08T00:43:30.734Z,97292.20
2023-03-08T00:45:57.224Z,97290.63
2023-03-08T00:48:24.473Z,97294.20
2023-03-08T00:50:50.964Z,97293.05
2023-03-08T00:53:17.747Z,97293.18
2023-03-08T00:55:52.651Z,97291.84
2023-03-08T00:58:20.060Z,97289.88
2023-03-08T01:00:48.071Z,97296.69
2023-03-08T01:03:15.607Z,97292.32
2023-03-08T01:05:45.219Z,97293.41
2023-03-08T01:08:13.108Z,97289.72
2023-03-08T01:10:40.057Z,97284.48
2023-03-08T01:13:08.325Z,97284.67
2023-03-08T01:15:36.471Z,97285.56
2023-03-08T01:18:04.597Z,97283.34
2023-03-08T01:20:31.460Z,97281.54
2023-03-08T01:22:58.519Z,97284.24
2023-03-08T01:25:25.686Z,97284.30
2023-03-08T01:27:52.201Z,97284.27
2023-03-08T01:30:18.721Z,97283.17
2023-03-08T01:32:45.312Z,97286.03
2023-03-08T01:35:11.766Z,97287.60
2023-03-08T01:37:38.255Z,97284.36
2023-03-08T01:40:07.059Z,97283.45
2023-03-08T01:42:34.101Z,97279.88
2023-03-08T01:45:04.814Z,97274.61
2023-03-08T01:47:35.453Z,97279.11
2023-03-08T01:50:07.412Z,97278.71
2023-03-08T01:52:40.978Z,97282.35
2023-03-08T01:55:10.897Z,97281.15
2023-03-08T01:57:45.020Z,97280.88
2023-03-08T02:00:18.307Z,97280.38
2023-03-08T02:02:49.587Z,97280.48
2023-03-08T02:05:18.378Z,97283.42
2023-03-08T02:07:44.903Z,97286.16
2023-03-08T02:10:12.700Z,97284.13
2023-03-08T02:12:40.495Z,97287.05
2023-03-08T02:15:10.452Z,97287.58
2023-03-08T02:17:39.622Z,97286.48
2023-03-08T02:20:10.813Z,97285.55
2023-03-08T02:22:41.878Z,97290.63
2023-03-08T02:25:19.506Z,97287.25
2023-03-08T02:27:46.592Z,97291.46
2023-03-08T02:30:17.311Z,97290.60
2023-03-08T02:32:44.031Z,97293.86
2023-03-08T02:35:10.824Z,97290.48
2023-03-08T02:37:37.335Z,97290.73
2023-03-08T02:40:04.453Z,97287.54
2023-03-08T02:42:31.208Z,97291.36
2023-03-08T02:44:58.230Z,97287.02
2023-03-08T02:47:24.709Z,97286.64
2023-03-08T02:49:51.181Z,97288.04
2023-03-08T02:52:17.893Z,97293.41
2023-03-08T02:54:44.568Z,97291.61
2023-03-08T02:57:11.039Z,97289.88
2023-03-08T02:59:37.916Z,97290.31
2023-03-08T03:02:04.563Z,97292.56
2023-03-08T03:04:32.585Z,97290.48
2023-03-08T03:06:59.618Z,97296.48
2023-03-08T03:09:28.334Z,97288.63
2023-03-08T03:11:55.832Z,97291.57
2023-03-08T03:14:22.292Z,97292.67
2023-03-08T03:16:48.869Z,97298.29
2023-03-08T03:19:15.342Z,97301.48
2023-03-08T03:21:41.831Z,97299.33
2023-03-08T03:24:08.820Z,97303.07
2023-03-08T03:26:35.291Z,97306.48
2023-03-08T03:29:01.712Z,97302.98
2023-03-08T03:31:28.526Z,97301.31
2023-03-08T03:33:55.097Z,97301.06
2023-03-08T03:36:22.404Z,97305.40
2023-03-08T03:38:49.812Z,97307.73
2023-03-08T03:41:19.512Z,97310.19
2023-03-08T03:43:47.092Z,97314.87
2023-03-08T03:46:17.324Z,97325.99
2023-03-08T03:48:44.963Z,97324.33
2023-03-08T03:51:14.933Z,97324.34
2023-03-08T03:53:41.900Z,97317.04
2023-03-08T03:56:17.530Z,97309.68
2023-03-08T03:58:44.888Z,97317.45
2023-03-08T04:01:16.222Z,97318.21
2023-03-08T04:03:44.194Z,97319.42
2023-03-08T04:06:16.915Z,97325.57
2023-03-08T04:08:44.326Z,97325.86
2023-03-08T04:11:13.720Z,97327.60
2023-03-08T04:13:40.727Z,97326.39
2023-03-08T04:16:15.057Z,97331.09
2023-03-08T04:18:41.915Z,97334.40
2023-03-08T04:21:08.739Z,97334.10
2023-03-08T04:23:36.112Z,97338.76
2023-03-08T04:26:04.533Z,97342.45
2023-03-08T04:28:33.229Z,97343.11
2023-03-08T04:31:00.859Z,97345.89
2023-03-08T04:33:27.318Z,97352.52
2023-03-08T04:35:53.777Z,97353.09
2023-03-08T04:38:20.216Z,97352.65
2023-03-08T04:41:04.583Z,97353.35
2023-03-08T04:43:34.194Z,97353.35
2023-03-08T04:46:01.155Z,97358.77
2023-03-08T04:48:28.244Z,97364.67
2023-03-08T04:50:59.582Z,97371.29
2023-03-08T04:53:27.774Z,97372.11
2023-03-08T04:55:54.735Z,97379.08
2023-03-08T04:58:21.337Z,97387.89
2023-03-08T05:00:47.985Z,97393.89
2023-03-08T05:03:16.020Z,97393.65
2023-03-08T05:05:47.023Z,97398.94
2023-03-08T05:08:13.526Z,97396.59
2023-03-08T05:10:45.855Z,97399.66
2023-03-08T05:13:12.411Z,97406.40
2023-03-08T05:15:40.045Z,97405.98
2023-03-08T05:18:06.567Z,97410.14
2023-03-08T05:20:33.104Z,97410.29
2023-03-08T05:22:59.685Z,97410.75
2023-03-08T05:25:26.266Z,97420.18
2023-03-08T05:27:53.915Z,97422.80
2023-03-08T05:30:20.838Z,97424.23
2023-03-08T05:32:47.343Z,97430.04
2023-03-08T05:35:14.046Z,97436.40
2023-03-08T05:37:40.501Z,97439.63
2023-03-08T05:40:07.504Z,97440.55
2023-03-08T05:42:34.577Z,97442.67
2023-03-08T05:45:01.924Z,97452.80
2023-03-08T05:47:29.707Z,97456.50
2023-03-08T05:49:56.401Z,97455.05
2023-03-08T05:52:22.855Z,97457.61
2023-03-08T05:54:50.195Z,97460.34
2023-03-08T05:57:17.215Z,97465.49
2023-03-08T05:59:44.159Z,97465.86
2023-03-08T06:02:10.723Z,97472.30
2023-03-08T06:04:38.513Z,97481.29
2023-03-08T06:07:05.003Z,97483.42
2023-03-08T06:09:31.999Z,97490.02
2023-03-08T06:11:59.103Z,97495.19
2023-03-08T06:14:25.637Z,97502.45
2023-03-08T06:16:52.241Z,97505.27
2023-03-08T06:19:18.813Z,97504.13
2023-03-08T06:21:46.035Z,97508.23
2023-03-08T06:24:13.016Z,97513.08
2023-03-08T06:26:39.515Z,97519.85
2023-03-08T06:29:05.966Z,97518.80
2023-03-08T06:31:32.526Z,97518.16
2023-03-08T06:34:03.078Z,97524.95
2023-03-08T06:36:30.452Z,97526.77
2023-03-08T06:38:59.012Z,97528.89
2023-03-08T06:41:25.769Z,97529.72
2023-03-08T06:43:52.242Z,97528.91
2023-03-08T06:46:19.749Z,97532.30
2023-03-08T06:48:49.124Z,97530.25
2023-03-08T06:51:16.922Z,97532.15
2023-03-08T06:53:43.498Z,97536.24
2023-03-08T06:56:13.410Z,97544.53
2023-03-08T06:58:40.250Z,97548.73
2023-03-08T07:01:09.067Z,97540.24
2023-03-08T07:03:36.806Z,97543.23
2023-03-08T07:06:09.153Z,97547.61
2023-03-08T07:08:37.602Z,97559.39
2023-03-08T07:11:09.072Z,97563.27
2023-03-08T07:13:37.364Z,97566.02
2023-03-08T07:16:09.706Z,97566.67
2023-03-08T07:18:37.468Z,97569.64
2023-03-08T07:21:04.869Z,97572.90
2023-03-08T07:23:31.486Z,97572.05
2023-03-08T07:25:58.776Z,97573.38
2023-03-08T07:28:25.345Z,97580.53
2023-03-08T07:30:52.982Z,97579.39
2023-03-08T07:33:22.506Z,97578.67
2023-03-08T07:35:49.378Z,97578.69
2023-03-08T07:38:16.960Z,97577.07
2023-03-08T07:40:44.404Z,97575.33
2023-03-08T07:43:11.246Z,97580.67
2023-03-08T07:45:41.526Z,97584.36
2023-03-08T07:48:08.773Z,97588.05
2023-03-08T07:50:36.429Z,97590.08
2023-03-08T07:53:03.959Z,97594.23
2023-03-08T07:55:30.997Z,97600.84
2023-03-08T07:57:57.479Z,97601.73
2023-03-08T08:00:24.737Z,97601.82
2023-03-08T08:02:53.463Z,97606.65
2023-03-08T08:05:26.953Z,97610.24
2023-03-08T08:07:54.174Z,97616.95
2023-03-08T08:10:21.102Z,97612.95
2023-03-08T08:12:47.656Z,97614.56
2023-03-08T08:15:16.828Z,97618.05
2023-03-08T08:17:43.421Z,97612.94
2023-03-08T08:20:11.091Z,97612.98
2023-03-08T08:22:37.707Z,97610.48
2023-03-08T08:25:05.504Z,97609.41
2023-03-08T08:27:32.412Z,97617.41
2023-03-08T08:29:59.420Z,97624.67
2023-03-08T08:32:26.659Z,97627.84
2023-03-08T08:34:53.095Z,97631.36
2023-03-08T08:37:19.709Z,97636.45
2023-03-08T08:39:46.197Z,97638.42
2023-03-08T08:42:13.480Z,97640.85
2023-03-08T08:44:40.432Z,97642.60
2023-03-08T08:47:07.548Z,97636.62
2023-03-08T08:49:34.077Z,97633.30
2023-03-08T08:52:00.629Z,97634.90
2023-03-08T08:54:28.141Z,97637.42
2023-03-08T08:56:55.151Z,97632.27
2023-03-08T08:59:21.735Z,97637.83
2023-03-08T09:01:48.481Z,97640.17
2023-03-08T09:04:16.274Z,97637.25
2023-03-08T09:06:43.394Z,97647.77
2023-03-08T09:09:10.711Z,97649.14
2023-03-08T09:11:45.114Z,97646.38
2023-03-08T09:14:18.612Z,97650.23
2023-03-08T09:16:45.749Z,97647.95
2023-03-08T09:19:14.897Z,97652.27
2023-03-08T09:22:36.329Z,97651.91
2023-03-08T09:25:03.872Z,97649.32
2023-03-08T09:27:30.956Z,97647.80
2023-03-08T09:29:58.184Z,97639.47
2023-03-08T09:32:25.457Z,97634.05
2023-03-08T09:34:57.780Z,97637.04
2023-03-08T09:37:24.346Z,97636.14
2023-03-08T09:39:52.452Z,97628.60
2023-03-08T09:42:39.796Z,97631.70
2023-03-08T09:45:26.197Z,97623.36
2023-03-08T09:48:22.747Z,97622.59
2023-03-08T09:51:03.659Z,97628.54
2023-03-08T09:53:51.120Z,97622.09
2023-03-08T09:56:46.348Z,97619.31
2023-03-08T09:59:14.242Z,97615.34
2023-03-08T10:01:55.487Z,97621.28
2023-03-08T10:04:25.315Z,97627.02
2023-03-08T10:07:03.645Z,97630.03
2023-03-08T10:09:39.535Z,97628.96
2023-03-08T10:12:28.720Z,97625.39
2023-03-08T10:15:13.911Z,97627.48
2023-03-08T10:17:49.602Z,97627.27
2023-03-08T10:20:30.811Z,97626.18
2023-03-08T10:23:06.975Z,97623.88
2023-03-08T10:25:34.366Z,97621.75
2023-03-08T10:28:03.186Z,97619.98
2023-03-08T10:30:39.987Z,97614.02
2023-03-08T10:33:11.398Z,97608.94
2023-03-08T10:35:55.584Z,97613.05
2023-03-08T10:38:25.496Z,97613.58
2023-03-08T10:41:12.463Z,97615.77
2023-03-08T10:43:51.868Z,97616.55
2023-03-08T10:46:21.736Z,97615.90
2023-03-08T10:48:48.949Z,97613.30
2023-03-08T10:51:22.700Z,97613.33
2023-03-08T10:53:57.897Z,97613.95
2023-03-08T10:56:30.863Z,97612.05
2023-03-08T10:58:58.300Z,97618.39
2023-03-08T11:01:29.244Z,97618.20
2023-03-08T11:04:00.058Z,97618.98
2023-03-08T11:06:27.144Z,97611.51
2023-03-08T11:08:56.674Z,97606.89
2023-03-08T11:11:23.510Z,97605.24
2023-03-08T11:13:52.064Z,97596.95
2023-03-08T11:16:28.401Z,97588.05
2023-03-08T11:18:58.563Z,97582.52
2023-03-08T11:21:45.842Z,97576.27
2023-03-08T11:24:21.194Z,97573.20
2023-03-08T11:27:12.833Z,97569.83
2023-03-08T11:29:56.612Z,97558.81
2023-03-08T11:32:36.794Z,97561.99
2023-03-08T11:35:37.533Z,97555.78
2023-03-08T11:38:26.796Z,97553.44
2023-03-08T11:41:14.699Z,97549.40
2023-03-08T11:43:55.798Z,97545.78
2023-03-08T11:47:01.825Z,97543.88
2023-03-08T11:49:34.367Z,97540.40
2023-03-08T11:52:11.595Z,97535.50
2023-03-08T11:55:09.977Z,97533.81
2023-03-08T11:57:43.242Z,97529.81
2023-03-08T12:00:33.565Z,97523.01
2023-03-08T12:03:11.170Z,97521.02
2023-03-08T12:05:52.507Z,97517.20
2023-03-08T12:08:24.853Z,97523.78
2023-03-08T12:11:22.564Z,97527.33
2023-03-08T12:14:03.546Z,97532.05
2023-03-08T12:16:39.761Z,97526.71
2023-03-08T12:19:25.750Z,97526.29
2023-03-08T12:21:55.302Z,97520.26
2023-03-08T12:24:49.509Z,97524.08
2023-03-08T12:27:28.192Z,97526.60
2023-03-08T12:30:18.019Z,97521.31
2023-03-08T12:32:46.946Z,97519.67
2023-03-08T12:35:22.641Z,97518.36
2023-03-08T12:37:56.577Z,97520.65
2023-03-08T12:40:34.741Z,97523.09
2023-03-08T12:43:26.498Z,97525.92
2023-03-08T12:45:59.250Z,97524.24
2023-03-08T12:48:27.397Z,97527.16
2023-03-08T12:51:00.468Z,97526.97
2023-03-08T12:53:38.554Z,97525.03
2023-03-08T12:56:35.945Z,97524.19
2023-03-08T12:59:27.296Z,97522.77
2023-03-08T13:01:57.017Z,97520.63
2023-03-08T13:04:40.462Z,97522.55
2023-03-08T13:07:38.929Z,97518.84
2023-03-08T13:10:23.367Z,97519.22
2023-03-08T13:13:09.305Z,97521.58
2023-03-08T13:15:39.508Z,97514.80
2023-03-08T13:18:07.856Z,97516.70
2023-03-08T13:20:41.742Z,97524.65
2023-03-08T13:23:14.662Z,97530.25
2023-03-08T13:25:46.666Z,97532.31
2023-03-08T13:28:17.629Z,97532.10
2023-03-08T13:30:51.426Z,97527.11
2023-03-08T13:33:25.357Z,97522.92
2023-03-08T13:36:24.133Z,97513.55
2023-03-08T13:39:15.512Z,97513.88
2023-03-08T13:41:45.254Z,97510.73
2023-03-08T13:44:21.043Z,97507.66
2023-03-08T13:46:50.883Z,97511.19
2023-03-08T13:49:52.084Z,97508.76
2023-03-08T13:52:22.644Z,97509.67
2023-03-08T13:54:52.913Z,97507.26
2023-03-08T13:57:23.627Z,97497.60
2023-03-08T13:59:54.331Z,97491.33
2023-03-08T14:02:24.266Z,97490.45
2023-03-08T14:04:51.855Z,97488.60
2023-03-08T14:07:25.171Z,97483.42
2023-03-08T14:09:52.852Z,97483.81
2023-03-08T14:12:27.129Z,97481.63
2023-03-08T14:15:00.749Z,97477.45
2023-03-08T14:17:31.991Z,97471.63
2023-03-08T14:20:15.562Z,97472.35
2023-03-08T14:22:48.311Z,97472.39
2023-03-08T14:25:29.925Z,97468.21
2023-03-08T14:27:57.392Z,97462.03
2023-03-08T14:30:29.895Z,97458.63
2023-03-08T14:33:20.156Z,97451.73
2023-03-08T14:35:59.293Z,97455.30
2023-03-08T14:38:29.777Z,97456.29
2023-03-08T14:40:58.323Z,97448.91
2023-03-08T14:43:26.902Z,97449.43
2023-03-08T14:45:57.768Z,97445.45
2023-03-08T14:48:35.543Z,97444.82
2023-03-08T14:51:24.124Z,97444.66
2023-03-08T14:54:00.383Z,97439.91
2023-03-08T14:56:29.580Z,97434.05
2023-03-08T14:59:03.299Z,97433.22
2023-03-08T15:01:35.697Z,97429.68
2023-03-08T15:04:04.370Z,97425.37
2023-03-08T15:06:33.837Z,97421.45
2023-03-08T15:09:02.312Z,97417.73
2023-03-08T15:11:30.957Z,97415.03
2023-03-08T15:13:59.057Z,97415.02
2023-03-08T15:16:26.925Z,97412.09
2023-03-08T15:18:54.428Z,97408.32
2023-03-08T15:21:27.481Z,97407.48
2023-03-08T15:23:55.254Z,97400.67
2023-03-08T15:26:25.229Z,97400.02
2023-03-08T15:28:51.808Z,97396.39
2023-03-08T15:31:19.138Z,97396.32
2023-03-08T15:33:46.045Z,97392.73
2023-03-08T15:36:15.663Z,97388.98
2023-03-08T15:38:43.106Z,97383.79
2023-03-08T15:41:14.156Z,97379.46
2023-03-08T15:43:41.821Z,97377.80
2023-03-08T15:46:13.946Z,97374.67
2023-03-08T15:48:41.268Z,97367.33
2023-03-08T15:51:17.676Z,97364.38
2023-03-08T15:53:44.954Z,97357.65
2023-03-08T15:56:12.123Z,97357.34
2023-03-08T15:58:38.757Z,97357.33
2023-03-08T16:01:06.272Z,97354.14
2023-03-08T16:03:34.425Z,97349.94
2023-03-08T16:06:03.507Z,97349.67
2023-03-08T16:08:30.834Z,97346.38
2023-03-08T16:11:03.091Z,97346.88
2023-03-08T16:13:30.448Z,97347.02
2023-03-08T16:15:59.059Z,97346.37
2023-03-08T16:18:25.927Z,97348.69
2023-03-08T16:20:52.915Z,97349.42
2023-03-08T16:23:20.078Z,97351.05
2023-03-08T16:26:05.422Z,97355.12
2023-03-08T16:28:40.620Z,97353.61
2023-03-08T16:31:08.500Z,97355.25
2023-03-08T16:33:36.498Z,97362.64
2023-03-08T16:36:03.340Z,97362.95
2023-03-08T16:38:30.017Z,97361.13
2023-03-08T16:41:11.616Z,97363.44
2023-03-08T16:43:46.467Z,97371.20
2023-03-08T16:46:38.635Z,97367.18
2023-03-08T16:49:13.035Z,97367.89
2023-03-08T16:51:42.125Z,97365.67
2023-03-08T16:54:10.867Z,97362.56
2023-03-08T16:56:38.507Z,97367.11
2023-03-08T16:59:05.026Z,97377.16
2023-03-08T17:01:32.320Z,97382.14
2023-03-08T17:03:59.179Z,97376.20
2023-03-08T17:06:29.140Z,97366.66
2023-03-08T17:08:57.920Z,97370.39
2023-03-08T17:11:32.399Z,97369.52
2023-03-08T17:14:07.132Z,97372.48
2023-03-08T17:16:35.574Z,97375.20
2023-03-08T17:19:05.568Z,97372.27
2023-03-08T17:21:37.637Z,97370.46
2023-03-08T17:24:06.898Z,97374.69
2023-03-08T17:26:39.610Z,97372.27
2023-03-08T17:29:14.907Z,97373.44
2023-03-08T17:31:43.137Z,97380.88
2023-03-08T17:34:10.461Z,97373.27
2023-03-08T17:36:39.781Z,97371.48
2023-03-08T17:39:07.805Z,97376.56
2023-03-08T17:41:38.954Z,97376.82
2023-03-08T17:44:06.033Z,97375.99
2023-03-08T17:46:32.733Z,97373.61
2023-03-08T17:48:59.200Z,97372.21
2023-03-08T17:51:28.271Z,97380.50
2023-03-08T17:53:59.175Z,97376.48
2023-03-08T17:56:37.946Z,97379.21
2023-03-08T17:59:10.128Z,97379.54
2023-03-08T18:01:40.738Z,97378.23
2023-03-08T18:04:11.581Z,97379.87
2023-03-08T18:06:42.975Z,97381.05
2023-03-08T18:09:16.276Z,97377.70
2023-03-08T18:11:51.001Z,97378.44
2023-03-08T18:14:18.479Z,97377.62
2023-03-08T18:16:48.231Z,97373.77
2023-03-08T18:19:14.740Z,97370.84
2023-03-08T18:21:41.778Z,97363.97
2023-03-08T18:24:12.056Z,97369.15
2023-03-08T18:26:39.763Z,97366.86
2023-03-08T18:29:06.192Z,97366.89
2023-03-08T18:31:36.908Z,97368.80
2023-03-08T18:34:04.590Z,97365.73
2023-03-08T18:36:31.056Z,97365.58
2023-03-08T18:38:57.608Z,97355.16
2023-03-08T18:41:29.188Z,97352.38
2023-03-08T18:44:00.724Z,97345.63
2023-03-08T18:46:34.223Z,97345.21
2023-03-08T18:49:12.615Z,97342.33
2023-03-08T18:51:43.435Z,97338.02
2023-03-08T18:54:13.635Z,97339.65
2023-03-08T18:56:41.841Z,97343.16
2023-03-08T18:59:10.035Z,97337.98
2023-03-08T19:01:36.814Z,97331.95
2023-03-08T19:04:16.127Z,97331.05
2023-03-08T19:06:48.223Z,97322.92
2023-03-08T19:09:21.065Z,97316.42
2023-03-08T19:11:48.554Z,97304.66
2023-03-08T19:14:20.990Z,97304.98
2023-03-08T19:16:57.231Z,97302.31
2023-03-08T19:19:26.592Z,97298.55
2023-03-08T19:21:56.158Z,97292.04
2023-03-08T19:24:25.044Z,97290.50
2023-03-08T19:26:58.307Z,97289.77
2023-03-08T19:29:36.191Z,97285.70
2023-03-08T19:32:07.821Z,97292.63
2023-03-08T19:34:37.779Z,97284.39
2023-03-08T19:37:09.034Z,97275.96
2023-03-08T19:39:37.945Z,97270.89
2023-03-08T19:42:14.201Z,97269.36
2023-03-08T19:44:48.879Z,97264.39
2023-03-08T19:47:20.280Z,97259.05
2023-03-08T19:49:49.825Z,97248.83
2023-03-08T19:52:16.341Z,97248.81
2023-03-08T19:54:44.009Z,97243.71
2023-03-08T19:57:10.570Z,97243.82
2023-03-08T19:59:40.363Z,97241.27
2023-03-08T20:02:12.279Z,97233.52
2023-03-08T20:04:42.472Z,97231.70
2023-03-08T20:07:11.975Z,97224.42
2023-03-08T20:09:53.965Z,97221.51
2023-03-08T20:12:24.062Z,97216.14
2023-03-08T20:14:58.220Z,97216.55
2023-03-08T20:17:26.473Z,97214.18
2023-03-08T20:19:52.984Z,97213.24
2023-03-08T20:22:19.474Z,97211.18
2023-03-08T20:24:52.869Z,97205.25
2023-03-08T20:27:30.157Z,97202.67
2023-03-08T20:29:57.565Z,97198.39
2023-03-08T20:32:26.072Z,97193.77
2023-03-08T20:34:56.966Z,97194.81
2023-03-08T20:37:26.083Z,97193.62
2023-03-08T20:40:01.199Z,97185.21
2023-03-08T20:42:41.015Z,97186.10
2023-03-08T20:45:13.661Z,97178.59
2023-03-08T20:47:46.025Z,97176.42
2023-03-08T20:50:15.557Z,97165.27
2023-03-08T20:52:50.118Z,97149.21
2023-03-08T20:55:17.312Z,97140.30
2023-03-08T20:57:44.542Z,97133.52
2023-03-08T21:00:13.914Z,97137.60
2023-03-08T21:02:42.246Z,97137.73
2023-03-08T21:05:13.257Z,97132.90
2023-03-08T21:07:41.291Z,97129.72
2023-03-08T21:10:29.438Z,97129.44
2023-03-08T21:13:12.190Z,97127.98
2023-03-08T21:15:43.411Z,97126.69
2023-03-08T21:18:13.422Z,97124.13
2023-03-08T21:20:42.369Z,97117.48
2023-03-08T21:23:08.876Z,97108.98
2023-03-08T21:25:36.223Z,97103.45
2023-03-08T21:28:04.759Z,97093.44
2023-03-08T21:30:32.065Z,97094.95
2023-03-08T21:32:58.987Z,97088.17
2023-03-08T21:35:25.474Z,97090.02
2023-03-08T21:37:52.038Z,97083.71
2023-03-08T21:40:18.647Z,97084.90
2023-03-08T21:42:45.155Z,97077.58
2023-03-08T21:45:12.380Z,97069.33
2023-03-08T21:47:39.475Z,97066.59
2023-03-08T21:50:08.921Z,97062.19
2023-03-08T21:52:36.404Z,97068.95
2023-03-08T21:55:03.155Z,97070.94
2023-03-08T21:57:34.064Z,97070.44
2023-03-08T22:00:01.178Z,97066.98
2023-03-08T22:02:27.712Z,97064.20
2023-03-08T22:04:54.210Z,97067.13
2023-03-08T22:07:20.567Z,97060.77
2023-03-08T22:09:47.449Z,97060.60
2023-03-08T22:12:14.455Z,97063.17
2023-03-08T22:14:40.880Z,97051.15
2023-03-08T22:17:07.297Z,97047.58
2023-03-08T22:19:33.808Z,97044.23
2023-03-08T22:22:00.848Z,97042.12
2023-03-08T22:24:27.850Z,97042.02
2023-03-08T22:26:54.353Z,97040.29
2023-03-08T22:29:20.836Z,97040.12
2023-03-08T22:31:47.425Z,97036.12
2023-03-08T22:34:13.973Z,97032.25
2023-03-08T22:36:40.981Z,97030.15
2023-03-08T22:39:08.076Z,97023.29
2023-03-08T22:41:34.594Z,97022.96
2023-03-08T22:44:03.466Z,97022.67
2023-03-08T22:46:30.141Z,97025.77
2023-03-08T22:48:57.872Z,97027.02
2023-03-08T22:51:26.973Z,97024.52
2023-03-08T22:53:55.428Z,97023.60
2023-03-08T22:56:25.623Z,97022.04
2023-03-08T22:58:52.650Z,97019.13
2023-03-08T23:01:21.808Z,97020.95
2023-03-08T23:03:50.183Z,97022.16
2023-03-08T23:06:17.974Z,97023.15
2023-03-08T23:08:45.802Z,97022.05
2023-03-08T23:11:12.916Z,97020.05
2023-03-08T23:13:40.599Z,97016.41
2023-03-08T23:16:07.903Z,97015.31
2023-03-08T23:18:34.677Z,97015.23
2023-03-08T23:21:04.170Z,97018.02
2023-03-08T23:23:30.965Z,97019.98
2023-03-08T23:25:57.814Z,97016.56
2023-03-08T23:28:24.506Z,97014.46
2023-03-08T23:30:51.086Z,97007.48
2023-03-08T23:33:17.884Z,97003.89
2023-03-08T23:35:48.384Z,97005.56
2023-03-08T23:38:15.188Z,97006.23
2023-03-08T23:40:41.651Z,97007.77
2023-03-08T23:43:08.756Z,97006.29
2023-03-08T23:45:38.616Z,97007.45
2023-03-08T23:48:05.248Z,97005.16
2023-03-08T23:50:34.209Z,97000.86
2023-03-08T23:53:00.730Z,97000.27
2023-03-08T23:55:27.226Z,96992.58
2023-03-08T23:57:54.295Z,96991.86
